createdAt,value
2023-03-03T00:00:08.892Z,4.84
2023-03-03T00:01:08.887Z,4.74
2023-03-03T00:02:09.081Z,4.79
2023-03-03T00:03:09.106Z,4.82
2023-03-03T00:04:11.744Z,4.75
2023-03-03T00:05:08.888Z,4.74
2023-03-03T00:06:08.904Z,4.71
2023-03-03T00:07:08.953Z,4.75
2023-03-03T00:08:09.016Z,4.61
2023-03-03T00:09:08.914Z,4.64
2023-03-03T00:10:08.911Z,4.7
2023-03-03T00:11:08.891Z,4.64
2023-03-03T00:12:08.922Z,4.63
2023-03-03T00:13:08.923Z,4.66
2023-03-03T00:14:08.892Z,4.64
2023-03-03T00:15:11.715Z,4.76
2023-03-03T00:16:09.114Z,4.6
2023-03-03T00:17:09.024Z,4.75
2023-03-03T00:18:09.940Z,4.63
2023-03-03T00:19:08.958Z,4.64
2023-03-03T00:20:08.912Z,4.64
2023-03-03T00:21:08.952Z,4.57
2023-03-03T00:22:08.942Z,4.64
2023-03-03T00:23:08.927Z,4.63
2023-03-03T00:24:08.931Z,4.6
2023-03-03T00:25:08.907Z,4.57
2023-03-03T00:26:09.959Z,4.42
2023-03-03T00:27:08.958Z,4.5
2023-03-03T00:28:08.930Z,4.46
2023-03-03T00:29:08.930Z,4.46
2023-03-03T00:30:08.942Z,4.49
2023-03-03T00:31:11.873Z,4.39
2023-03-03T00:32:09.131Z,4.48
2023-03-03T00:33:08.964Z,4.39
2023-03-03T00:34:09.038Z,4.48
2023-03-03T00:35:08.977Z,4.5
2023-03-03T00:36:08.966Z,4.36
2023-03-03T00:37:12.002Z,4.43
2023-03-03T00:38:08.935Z,4.36
2023-03-03T00:39:08.939Z,4.21
2023-03-03T00:40:08.990Z,4.28
2023-03-03T00:41:08.948Z,4.24
2023-03-03T00:42:09.882Z,4.3
2023-03-03T00:43:08.953Z,4.07
2023-03-03T00:44:08.628Z,4.16
2023-03-03T00:45:08.967Z,4.13
2023-03-03T00:46:09.007Z,4.09
2023-03-03T00:47:08.999Z,4.12
2023-03-03T00:48:09.005Z,4.2
2023-03-03T00:49:08.968Z,4.21
2023-03-03T00:50:09.034Z,4.09
2023-03-03T00:51:09.003Z,4.1
2023-03-03T00:52:09.048Z,4.1
2023-03-03T00:53:12.132Z,4.13
2023-03-03T00:54:08.981Z,4.2
2023-03-03T00:55:09.002Z,4.16
2023-03-03T00:56:08.961Z,4.12
2023-03-03T00:57:09.211Z,4.14
2023-03-03T00:58:09.007Z,4.12
2023-03-03T00:59:08.983Z,4.1
2023-03-03T01:00:09.000Z,4.2
2023-03-03T01:01:08.983Z,4.16
2023-03-03T01:02:09.021Z,4.09
2023-03-03T01:03:09.006Z,4.06
2023-03-03T01:04:08.975Z,4.07
2023-03-03T01:05:09.009Z,4.02
2023-03-03T01:06:09.088Z,4.02
2023-03-03T01:07:09.062Z,3.96
2023-03-03T01:08:09.031Z,3.96
2023-03-03T01:09:11.998Z,3.96
2023-03-03T01:10:08.997Z,4.09
2023-03-03T01:11:09.007Z,3.91
2023-03-03T01:12:09.041Z,3.91
2023-03-03T01:13:09.058Z,3.91
2023-03-03T01:15:09.021Z,3.92
2023-03-03T01:16:09.133Z,4
2023-03-03T01:17:09.057Z,3.92
2023-03-03T01:18:09.004Z,3.86
2023-03-03T01:19:09.013Z,3.96
2023-03-03T01:20:12.111Z,3.99
2023-03-03T01:21:09.020Z,3.89
2023-03-03T01:22:09.063Z,3.92
2023-03-03T01:23:09.033Z,3.91
2023-03-03T01:24:09.013Z,3.77
2023-03-03T01:25:12.003Z,3.85
2023-03-03T01:26:09.026Z,3.89
2023-03-03T01:27:09.083Z,3.85
2023-03-03T01:28:09.032Z,3.77
2023-03-03T01:29:09.043Z,3.86
2023-03-03T01:30:09.072Z,3.89
2023-03-03T01:31:09.206Z,3.74
2023-03-03T01:32:09.238Z,3.84
2023-03-03T01:33:09.034Z,3.92
2023-03-03T01:34:09.044Z,3.78
2023-03-03T01:35:09.057Z,3.78
2023-03-03T01:36:12.206Z,3.78
2023-03-03T01:37:09.057Z,3.74
2023-03-03T01:38:09.062Z,3.84
2023-03-03T01:39:09.093Z,3.76
2023-03-03T01:40:09.036Z,3.71
2023-03-03T01:41:09.179Z,3.82
2023-03-03T01:42:09.077Z,3.73
2023-03-03T01:43:09.060Z,3.73
2023-03-03T01:44:09.056Z,3.74
2023-03-03T01:45:09.092Z,3.7
2023-03-03T01:46:09.268Z,3.74
2023-03-03T01:47:11.977Z,3.77
2023-03-03T01:48:09.206Z,3.76
2023-03-03T01:49:09.052Z,3.61
2023-03-03T01:50:09.031Z,3.73
2023-03-03T01:51:09.084Z,3.63
2023-03-03T01:52:09.067Z,3.7
2023-03-03T01:53:09.035Z,3.5
2023-03-03T01:54:09.170Z,3.46
2023-03-03T01:55:09.171Z,3.43
2023-03-03T01:56:09.057Z,3.48
2023-03-03T01:57:09.065Z,3.5
2023-03-03T01:58:17.949Z,3.49
2023-03-03T01:59:09.062Z,3.61
2023-03-03T02:00:09.112Z,3.56
2023-03-03T02:01:09.419Z,3.58
2023-03-03T02:02:09.252Z,3.56
2023-03-03T02:03:09.259Z,3.56
2023-03-03T02:04:09.097Z,3.59
2023-03-03T02:05:09.098Z,3.56
2023-03-03T02:06:09.072Z,3.59
2023-03-03T02:07:09.130Z,3.66
2023-03-03T02:08:09.092Z,3.58
2023-03-03T02:09:10.169Z,3.58
2023-03-03T02:10:09.165Z,3.59
2023-03-03T02:11:09.135Z,3.5
2023-03-03T02:12:09.138Z,3.58
2023-03-03T02:13:09.099Z,3.53
2023-03-03T02:14:09.118Z,3.55
2023-03-03T02:15:09.087Z,3.48
2023-03-03T02:16:09.341Z,3.5
2023-03-03T02:17:09.150Z,3.53
2023-03-03T02:18:09.127Z,3.41
2023-03-03T02:19:09.162Z,3.46
2023-03-03T02:20:12.254Z,3.45
2023-03-03T02:21:09.111Z,3.45
2023-03-03T02:22:09.118Z,3.37
2023-03-03T02:23:08.934Z,3.4
2023-03-03T02:24:09.177Z,3.29
2023-03-03T02:25:09.214Z,3.26
2023-03-03T02:26:09.174Z,3.21
2023-03-03T02:27:09.143Z,3.22
2023-03-03T02:28:09.110Z,3.22
2023-03-03T02:29:09.118Z,3.11
2023-03-03T02:30:09.174Z,3.08
2023-03-03T02:31:12.219Z,3.12
2023-03-03T02:32:09.123Z,3.16
2023-03-03T02:33:09.154Z,3.16
2023-03-03T02:34:09.144Z,3.15
2023-03-03T02:35:09.141Z,3.12
2023-03-03T02:36:09.140Z,3.11
2023-03-03T02:37:09.125Z,3.09
2023-03-03T02:38:09.137Z,2.98
2023-03-03T02:39:09.188Z,2.93
2023-03-03T02:40:09.145Z,3.03
2023-03-03T02:41:09.150Z,2.91
2023-03-03T02:42:12.100Z,2.93
2023-03-03T02:43:09.158Z,2.9
2023-03-03T02:44:09.143Z,2.9
2023-03-03T02:45:09.161Z,2.87
2023-03-03T02:46:09.377Z,2.73
2023-03-03T02:47:09.179Z,2.62
2023-03-03T02:48:09.173Z,2.75
2023-03-03T02:49:09.148Z,2.7
2023-03-03T02:50:09.172Z,2.69
2023-03-03T02:51:09.190Z,2.65
2023-03-03T02:52:09.164Z,2.62
2023-03-03T02:53:10.246Z,2.52
2023-03-03T02:54:09.164Z,2.59
2023-03-03T02:55:09.159Z,2.62
2023-03-03T02:56:09.219Z,2.5
2023-03-03T02:57:09.331Z,2.59
2023-03-03T02:58:12.095Z,2.58
2023-03-03T02:59:09.178Z,2.68
2023-03-03T03:00:09.163Z,2.69
2023-03-03T03:01:09.428Z,2.77
2023-03-03T03:02:09.180Z,2.68
2023-03-03T03:03:09.182Z,2.64
2023-03-03T03:04:13.202Z,2.59
2023-03-03T03:05:09.179Z,2.57
2023-03-03T03:06:09.174Z,2.65
2023-03-03T03:07:09.228Z,2.64
2023-03-03T03:08:09.181Z,2.76
2023-03-03T03:09:12.052Z,2.77
2023-03-03T03:10:09.189Z,2.7
2023-03-03T03:11:09.226Z,2.65
2023-03-03T03:12:09.179Z,2.76
2023-03-03T03:13:09.246Z,2.7
2023-03-03T03:14:09.257Z,2.7
2023-03-03T03:15:09.195Z,2.75
2023-03-03T03:16:09.350Z,2.72
2023-03-03T03:17:09.192Z,2.77
2023-03-03T03:18:09.193Z,2.85
2023-03-03T03:19:09.220Z,2.79
2023-03-03T03:20:11.995Z,2.82
2023-03-03T03:21:09.196Z,2.73
2023-03-03T03:22:09.245Z,2.85
2023-03-03T03:23:09.240Z,2.8
2023-03-03T03:24:09.276Z,2.79
2023-03-03T03:25:09.204Z,2.82
2023-03-03T03:26:09.210Z,2.82
2023-03-03T03:27:09.224Z,2.79
2023-03-03T03:28:09.237Z,2.76
2023-03-03T03:29:09.303Z,2.73
2023-03-03T03:30:09.261Z,2.62
2023-03-03T03:31:09.357Z,2.62
2023-03-03T03:32:09.312Z,2.72
2023-03-03T03:33:09.245Z,2.75
2023-03-03T03:34:09.223Z,2.68
2023-03-03T03:35:09.225Z,2.75
2023-03-03T03:36:12.383Z,2.59
2023-03-03T03:37:09.230Z,2.57
2023-03-03T03:38:09.221Z,2.62
2023-03-03T03:39:09.387Z,2.61
2023-03-03T03:40:09.227Z,2.62
2023-03-03T03:41:09.227Z,2.61
2023-03-03T03:42:09.250Z,2.59
2023-03-03T03:43:09.392Z,2.59
2023-03-03T03:44:09.234Z,2.64
2023-03-03T03:45:09.254Z,2.54
2023-03-03T03:46:09.490Z,2.43
2023-03-03T03:47:12.273Z,2.47
2023-03-03T03:48:09.289Z,2.59
2023-03-03T03:49:09.253Z,2.55
2023-03-03T03:50:09.317Z,2.51
2023-03-03T03:51:09.248Z,2.64
2023-03-03T03:52:12.070Z,2.61
2023-03-03T03:53:10.298Z,2.61
2023-03-03T03:54:09.274Z,2.68
2023-03-03T03:55:09.327Z,2.52
2023-03-03T03:56:09.273Z,2.61
2023-03-03T03:57:09.385Z,2.58
2023-03-03T03:58:09.290Z,2.65
2023-03-03T03:59:09.285Z,2.59
2023-03-03T04:00:09.273Z,2.61
2023-03-03T04:01:09.288Z,2.7
2023-03-03T04:02:09.785Z,2.61
2023-03-03T04:03:13.438Z,2.59
2023-03-03T04:04:09.274Z,2.61
2023-03-03T04:05:09.278Z,2.52
2023-03-03T04:06:09.311Z,2.59
2023-03-03T04:07:11.599Z,2.57
2023-03-03T04:08:09.350Z,2.54
2023-03-03T04:09:09.282Z,2.5
2023-03-03T04:10:09.284Z,2.61
2023-03-03T04:11:09.308Z,2.47
2023-03-03T04:12:09.338Z,2.61
2023-03-03T04:13:09.340Z,2.54
2023-03-03T04:14:12.114Z,2.52
2023-03-03T04:15:09.319Z,2.61
2023-03-03T04:16:09.671Z,2.46
2023-03-03T04:17:09.280Z,2.58
2023-03-03T04:18:09.400Z,2.52
2023-03-03T04:19:09.299Z,2.44
2023-03-03T04:20:09.364Z,2.64
2023-03-03T04:21:09.301Z,2.47
2023-03-03T04:22:09.373Z,2.44
2023-03-03T04:23:09.315Z,2.4
2023-03-03T04:24:09.329Z,2.57
2023-03-03T04:25:12.364Z,2.46
2023-03-03T04:26:09.301Z,2.4
2023-03-03T04:27:09.496Z,2.33
2023-03-03T04:28:10.415Z,2.39
2023-03-03T04:29:09.312Z,2.3
2023-03-03T04:30:09.322Z,2.34
2023-03-03T04:31:09.516Z,2.28
2023-03-03T04:32:09.454Z,2.32
2023-03-03T04:33:09.347Z,2.3
2023-03-03T04:34:09.368Z,2.22
2023-03-03T04:35:13.466Z,2.21
2023-03-03T04:36:12.105Z,2.12
2023-03-03T04:37:09.341Z,2.21
2023-03-03T04:38:09.361Z,2.28
2023-03-03T04:39:09.405Z,2.21
2023-03-03T04:40:09.394Z,2.1
2023-03-03T04:41:09.345Z,2.14
2023-03-03T04:42:09.335Z,2.12
2023-03-03T04:43:09.411Z,2.08
2023-03-03T04:44:09.350Z,2.1
2023-03-03T04:45:09.351Z,2.18
2023-03-03T04:46:09.603Z,2.18
2023-03-03T04:47:12.097Z,2.26
2023-03-03T04:48:09.362Z,2.33
2023-03-03T04:49:14.872Z,2.23
2023-03-03T04:50:09.368Z,2.32
2023-03-03T04:51:09.372Z,2.33
2023-03-03T04:52:09.367Z,2.28
2023-03-03T04:53:09.374Z,2.39
2023-03-03T04:54:09.404Z,2.32
2023-03-03T04:55:12.592Z,2.32
2023-03-03T04:56:09.355Z,2.34
2023-03-03T04:57:09.472Z,2.37
2023-03-03T04:58:12.239Z,2.36
2023-03-03T04:59:09.386Z,2.36
2023-03-03T05:00:09.389Z,2.28
2023-03-03T05:01:09.358Z,2.41
2023-03-03T05:02:09.345Z,2.37
2023-03-03T05:03:09.422Z,2.37
2023-03-03T05:04:09.372Z,2.26
2023-03-03T05:05:09.421Z,2.26
2023-03-03T05:06:09.401Z,2.26
2023-03-03T05:07:09.389Z,2.34
2023-03-03T05:08:09.360Z,2.32
2023-03-03T05:09:12.196Z,2.34
2023-03-03T05:10:09.374Z,2.32
2023-03-03T05:11:09.408Z,2.33
2023-03-03T05:12:09.490Z,2.36
2023-03-03T05:13:09.390Z,2.25
2023-03-03T05:14:09.402Z,2.23
2023-03-03T05:15:09.442Z,2.15
2023-03-03T05:16:09.565Z,2.25
2023-03-03T05:17:09.381Z,2.28
2023-03-03T05:18:09.375Z,2.21
2023-03-03T05:19:09.372Z,2.22
2023-03-03T05:20:12.466Z,2.25
2023-03-03T05:21:09.418Z,2.26
2023-03-03T05:22:09.379Z,2.33
2023-03-03T05:23:09.372Z,2.16
2023-03-03T05:24:09.415Z,2.15
2023-03-03T05:25:12.182Z,2.15
2023-03-03T05:26:09.412Z,2.21
2023-03-03T05:27:09.415Z,2.23
2023-03-03T05:28:09.392Z,2.19
2023-03-03T05:29:09.420Z,2.18
2023-03-03T05:30:09.405Z,2.16
2023-03-03T05:31:12.475Z,2.19
2023-03-03T05:32:09.710Z,2.21
2023-03-03T05:33:09.422Z,2.22
2023-03-03T05:34:09.458Z,2.12
2023-03-03T05:35:09.428Z,2.07
2023-03-03T05:36:12.195Z,2.07
2023-03-03T05:37:09.416Z,2.04
2023-03-03T05:38:10.197Z,2.05
2023-03-03T05:39:09.408Z,2.12
2023-03-03T05:40:09.445Z,2.23
2023-03-03T05:41:09.447Z,2.14
2023-03-03T05:42:09.448Z,2.18
2023-03-03T05:43:09.563Z,2.05
2023-03-03T05:44:09.428Z,2.08
2023-03-03T05:45:09.425Z,2.04
2023-03-03T05:46:09.495Z,2.1
2023-03-03T05:47:12.325Z,2.12
2023-03-03T05:48:09.447Z,2.1
2023-03-03T05:49:09.461Z,2.14
2023-03-03T05:50:09.478Z,2.07
2023-03-03T05:51:09.525Z,2.15
2023-03-03T05:52:09.477Z,2.15
2023-03-03T05:53:09.491Z,2.08
2023-03-03T05:54:09.484Z,2
2023-03-03T05:55:09.479Z,2
2023-03-03T05:56:09.454Z,2.05
2023-03-03T05:57:09.465Z,2.05
2023-03-03T05:58:09.434Z,2.05
2023-03-03T05:59:09.452Z,2.04
2023-03-03T06:00:09.480Z,2.1
2023-03-03T06:01:09.463Z,2.08
2023-03-03T06:02:09.590Z,2.12
2023-03-03T06:03:12.814Z,2.08
2023-03-03T06:04:09.454Z,2.05
2023-03-03T06:05:09.483Z,2.04
2023-03-03T06:06:09.306Z,2.01
2023-03-03T06:07:09.480Z,2.07
2023-03-03T06:08:09.489Z,1.93
2023-03-03T06:09:09.540Z,1.98
2023-03-03T06:10:09.500Z,1.92
2023-03-03T06:11:09.488Z,1.92
2023-03-03T06:12:09.483Z,1.85
2023-03-03T06:13:09.491Z,2.04
2023-03-03T06:14:12.631Z,1.98
2023-03-03T06:15:09.630Z,1.97
2023-03-03T06:16:09.663Z,1.97
2023-03-03T06:17:09.472Z,2
2023-03-03T06:18:09.505Z,2.07
2023-03-03T06:19:11.041Z,1.98
2023-03-03T06:20:13.607Z,2.05
2023-03-03T06:21:09.484Z,1.98
2023-03-03T06:22:09.480Z,2.12
2023-03-03T06:23:09.517Z,2.12
2023-03-03T06:24:09.564Z,2.12
2023-03-03T06:25:09.517Z,2.1
2023-03-03T06:26:09.536Z,2.14
2023-03-03T06:27:09.525Z,2.03
2023-03-03T06:28:09.512Z,2.04
2023-03-03T06:29:09.532Z,2.1
2023-03-03T06:30:12.595Z,2.18
2023-03-03T06:31:09.483Z,2.08
2023-03-03T06:32:10.144Z,2.1
2023-03-03T06:33:09.515Z,2.03
2023-03-03T06:34:09.531Z,2.04
2023-03-03T06:35:09.383Z,2.05
2023-03-03T06:36:13.339Z,2.01
2023-03-03T06:37:09.567Z,2.05
2023-03-03T06:38:09.518Z,2.07
2023-03-03T06:39:09.560Z,2.15
2023-03-03T06:40:09.594Z,2.03
2023-03-03T06:41:12.363Z,2.1
2023-03-03T06:42:09.548Z,2.07
2023-03-03T06:43:09.554Z,2.16
2023-03-03T06:44:09.577Z,2.1
2023-03-03T06:45:09.530Z,2.1
2023-03-03T06:46:09.660Z,2.05
2023-03-03T06:47:09.562Z,2.18
2023-03-03T06:48:09.522Z,2.25
2023-03-03T06:49:09.544Z,2.22
2023-03-03T06:50:09.577Z,2.23
2023-03-03T06:51:09.554Z,2.16
2023-03-03T06:52:12.592Z,2.18
2023-03-03T06:53:09.546Z,2.15
2023-03-03T06:54:09.567Z,2.23
2023-03-03T06:55:09.656Z,2.26
2023-03-03T06:56:09.602Z,2.19
2023-03-03T06:57:09.658Z,2.36
2023-03-03T06:58:09.538Z,2.25
2023-03-03T06:59:09.589Z,2.28
2023-03-03T07:00:09.638Z,2.33
2023-03-03T07:01:09.658Z,2.44
2023-03-03T07:02:09.549Z,2.52
2023-03-03T07:03:12.393Z,2.54
2023-03-03T07:04:09.747Z,2.65
2023-03-03T07:05:09.606Z,2.69
2023-03-03T07:06:10.935Z,2.64
2023-03-03T07:07:09.592Z,2.68
2023-03-03T07:08:09.594Z,2.76
2023-03-03T07:09:09.634Z,2.77
2023-03-03T07:10:09.572Z,2.85
2023-03-03T07:11:09.582Z,2.9
2023-03-03T07:12:09.609Z,2.85
2023-03-03T07:13:09.666Z,2.93
2023-03-03T07:14:12.425Z,2.9
2023-03-03T07:15:09.667Z,2.85
2023-03-03T07:16:09.576Z,2.88
2023-03-03T07:17:09.600Z,2.88
2023-03-03T07:18:09.704Z,2.97
2023-03-03T07:19:09.635Z,2.95
2023-03-03T07:20:09.631Z,3
2023-03-03T07:21:09.570Z,3.05
2023-03-03T07:22:09.583Z,2.93
2023-03-03T07:23:09.664Z,2.98
2023-03-03T07:24:09.631Z,3.01
2023-03-03T07:25:12.695Z,3.09
2023-03-03T07:26:09.622Z,3.27
2023-03-03T07:27:09.600Z,3.27
2023-03-03T07:28:09.615Z,3.45
2023-03-03T07:29:09.678Z,3.45
2023-03-03T07:30:09.621Z,3.56
2023-03-03T07:31:09.772Z,3.58
2023-03-03T07:32:09.797Z,3.59
2023-03-03T07:33:10.606Z,3.7
2023-03-03T07:34:09.657Z,3.94
2023-03-03T07:35:09.644Z,4.18
2023-03-03T07:36:12.410Z,4.34
2023-03-03T07:37:09.667Z,4.66
2023-03-03T07:38:09.937Z,4.76
2023-03-03T07:39:09.662Z,5.08
2023-03-03T07:40:09.734Z,5.19
2023-03-03T07:41:09.648Z,5.22
2023-03-03T07:42:09.634Z,5.55
2023-03-03T07:43:09.621Z,5.72
2023-03-03T07:44:09.698Z,5.81
2023-03-03T07:45:09.722Z,6.01
2023-03-03T07:46:09.802Z,6.07
2023-03-03T07:47:12.737Z,6.12
2023-03-03T07:48:09.471Z,5.95
2023-03-03T07:49:09.678Z,5.88
2023-03-03T07:50:09.643Z,5.83
2023-03-03T07:51:09.671Z,5.73
2023-03-03T07:52:09.704Z,5.65
2023-03-03T07:53:09.659Z,5.59
2023-03-03T07:54:09.680Z,5.51
2023-03-03T07:55:09.684Z,5.44
2023-03-03T07:56:09.647Z,5.49
2023-03-03T07:57:09.678Z,5.46
2023-03-03T07:58:12.473Z,5.52
2023-03-03T07:59:09.689Z,5.33
2023-03-03T08:00:09.716Z,5.49
2023-03-03T08:01:09.707Z,5.34
2023-03-03T08:02:09.682Z,5.47
2023-03-03T08:03:12.778Z,5.55
2023-03-03T08:04:10.118Z,5.54
2023-03-03T08:05:10.449Z,5.38
2023-03-03T08:06:09.703Z,5.54
2023-03-03T08:07:09.509Z,5.56
2023-03-03T08:08:09.739Z,5.81
2023-03-03T08:09:09.732Z,5.8
2023-03-03T08:10:09.875Z,5.94
2023-03-03T08:11:09.693Z,5.94
2023-03-03T08:12:09.721Z,6.26
2023-03-03T08:13:09.655Z,6.1
2023-03-03T08:14:11.120Z,6.13
2023-03-03T08:15:09.701Z,5.79
2023-03-03T08:16:10.045Z,6.13
2023-03-03T08:17:09.764Z,6.2
2023-03-03T08:18:09.677Z,6.17
2023-03-03T08:19:09.718Z,6.02
2023-03-03T08:20:09.695Z,6.12
2023-03-03T08:21:09.671Z,6.07
2023-03-03T08:22:09.685Z,6.01
2023-03-03T08:23:09.758Z,6.07
2023-03-03T08:24:09.710Z,6.05
2023-03-03T08:25:09.782Z,6.05
2023-03-03T08:26:10.503Z,6.13
2023-03-03T08:27:09.752Z,5.81
2023-03-03T08:28:09.681Z,5.87
2023-03-03T08:29:09.737Z,5.91
2023-03-03T08:30:12.608Z,6.07
2023-03-03T08:31:42.557Z,6.01
2023-03-03T08:32:10.067Z,6.01
2023-03-03T08:33:09.578Z,6.15
2023-03-03T08:34:09.744Z,6.2
2023-03-03T08:35:09.775Z,6.34
2023-03-03T08:36:10.802Z,6.36
2023-03-03T08:37:09.713Z,6.29
2023-03-03T08:38:09.743Z,6.31
2023-03-03T08:39:09.824Z,6.15
2023-03-03T08:40:09.729Z,6.1
2023-03-03T08:41:12.488Z,6.1
2023-03-03T08:42:09.737Z,6.17
2023-03-03T08:43:09.856Z,6.15
2023-03-03T08:44:09.753Z,5.94
2023-03-03T08:45:09.749Z,6.07
2023-03-03T08:46:12.810Z,6.2
2023-03-03T08:47:09.762Z,6.22
2023-03-03T08:48:10.830Z,6.25
2023-03-03T08:49:09.761Z,6.19
2023-03-03T08:50:09.751Z,6.22
2023-03-03T08:51:09.735Z,6.19
2023-03-03T08:52:12.501Z,6.35
2023-03-03T08:53:09.771Z,6.35
2023-03-03T08:54:09.772Z,6.34
2023-03-03T08:55:11.600Z,6.74
2023-03-03T08:56:09.815Z,6.87
2023-03-03T08:57:12.744Z,7.11
2023-03-03T08:58:09.727Z,7.4
2023-03-03T08:59:09.796Z,7.59
2023-03-03T09:00:09.808Z,7.84
2023-03-03T09:01:09.962Z,8.05
2023-03-03T09:02:09.962Z,8.2
2023-03-03T09:03:10.083Z,8.14
2023-03-03T09:04:10.136Z,8.35
2023-03-03T09:05:09.805Z,8.64
2023-03-03T09:06:09.786Z,8.81
2023-03-03T09:07:09.757Z,8.95
2023-03-03T09:08:12.799Z,9.16
2023-03-03T09:09:09.767Z,9.42
2023-03-03T09:10:09.778Z,9.4
2023-03-03T09:11:09.742Z,9.82
2023-03-03T09:12:09.739Z,9.56
2023-03-03T09:13:11.701Z,9.72
2023-03-03T09:14:09.791Z,9.87
2023-03-03T09:15:09.773Z,9.88
2023-03-03T09:16:09.888Z,9.94
2023-03-03T09:17:09.869Z,10.27
2023-03-03T09:18:09.766Z,10.25
2023-03-03T09:19:12.644Z,10.24
2023-03-03T09:20:09.830Z,10.38
2023-03-03T09:21:09.788Z,10.34
2023-03-03T09:22:09.792Z,10.42
2023-03-03T09:23:09.787Z,10.33
2023-03-03T09:24:09.771Z,10.68
2023-03-03T09:25:09.765Z,10.82
2023-03-03T09:26:09.787Z,10.64
2023-03-03T09:27:09.939Z,10.83
2023-03-03T09:28:09.764Z,10.83
2023-03-03T09:29:09.789Z,11.22
2023-03-03T09:30:12.796Z,11.13
2023-03-03T09:31:12.302Z,11.18
2023-03-03T09:32:10.189Z,11.27
2023-03-03T09:33:09.783Z,11.38
2023-03-03T09:34:09.774Z,11.48
2023-03-03T09:35:09.792Z,11.51
2023-03-03T09:36:09.788Z,11.33
2023-03-03T09:37:13.098Z,11.26
2023-03-03T09:38:09.779Z,11.41
2023-03-03T09:39:09.903Z,11.52
2023-03-03T09:40:09.779Z,11.58
2023-03-03T09:41:12.552Z,11.95
2023-03-03T09:42:09.851Z,12
2023-03-03T09:43:09.829Z,12.03
2023-03-03T09:44:09.804Z,12.1
2023-03-03T09:45:09.933Z,12.08
2023-03-03T09:46:09.897Z,11.85
2023-03-03T09:47:09.844Z,12.12
2023-03-03T09:48:09.832Z,12.26
2023-03-03T09:49:09.851Z,12.26
2023-03-03T09:50:09.879Z,12.4
2023-03-03T09:51:09.889Z,12.5
2023-03-03T09:52:13.149Z,12.28
2023-03-03T09:53:09.808Z,12.17
2023-03-03T09:54:09.898Z,12.14
2023-03-03T09:55:09.793Z,12.4
2023-03-03T09:56:09.894Z,12.63
2023-03-03T09:57:09.807Z,12.62
2023-03-03T09:58:18.847Z,12.7
2023-03-03T09:59:10.885Z,12.61
2023-03-03T10:00:09.833Z,12.57
2023-03-03T10:01:09.824Z,12.65
2023-03-03T10:02:11.122Z,12.83
2023-03-03T10:03:13.742Z,12.83
2023-03-03T10:04:10.026Z,12.91
2023-03-03T10:05:09.886Z,12.94
2023-03-03T10:06:09.840Z,12.95
2023-03-03T10:07:09.842Z,12.91
2023-03-03T10:08:09.886Z,12.75
2023-03-03T10:09:09.853Z,12.78
2023-03-03T10:10:09.858Z,13.06
2023-03-03T10:11:09.827Z,13.12
2023-03-03T10:12:09.849Z,12.47
2023-03-03T10:13:09.869Z,12.7
2023-03-03T10:14:14.186Z,12.98
2023-03-03T10:15:09.885Z,13.01
2023-03-03T10:16:10.010Z,12.73
2023-03-03T10:17:09.856Z,12.66
2023-03-03T10:18:09.912Z,12.53
2023-03-03T10:19:09.907Z,12.63
2023-03-03T10:20:09.857Z,12.58
2023-03-03T10:21:09.861Z,12.72
2023-03-03T10:22:09.941Z,12.8
2023-03-03T10:23:09.900Z,12.8
2023-03-03T10:24:09.905Z,12.93
2023-03-03T10:25:12.762Z,13.05
2023-03-03T10:26:09.862Z,13.12
2023-03-03T10:27:18.096Z,13.49
2023-03-03T10:28:09.943Z,13.57
2023-03-03T10:29:09.912Z,13.33
2023-03-03T10:30:11.170Z,13.37
2023-03-03T10:31:20.813Z,13.55
2023-03-03T10:32:10.601Z,13.5
2023-03-03T10:33:10.800Z,13.31
2023-03-03T10:34:09.882Z,13.49
2023-03-03T10:35:10.182Z,13.75
2023-03-03T10:36:13.160Z,13.78
2023-03-03T10:37:09.906Z,13.8
2023-03-03T10:38:09.905Z,13.73
2023-03-03T10:39:09.939Z,13.67
2023-03-03T10:40:09.962Z,13.65
2023-03-03T10:41:10.892Z,13.64
2023-03-03T10:42:09.899Z,13.76
2023-03-03T10:43:12.326Z,13.83
2023-03-03T10:44:09.922Z,13.8
2023-03-03T10:45:10.026Z,13.68
2023-03-03T10:46:10.105Z,13.55
2023-03-03T10:47:09.919Z,13.57
2023-03-03T10:48:09.965Z,13.95
2023-03-03T10:49:09.957Z,13.91
2023-03-03T10:50:09.951Z,13.79
2023-03-03T10:51:09.951Z,13.7
2023-03-03T10:52:09.931Z,13.73
2023-03-03T10:53:09.955Z,13.83
2023-03-03T10:54:09.902Z,13.78
2023-03-03T10:55:09.989Z,13.8
2023-03-03T10:56:09.984Z,13.95
2023-03-03T10:57:11.064Z,14.13
2023-03-03T10:58:09.927Z,14.16
2023-03-03T10:59:09.902Z,14.13
2023-03-03T11:00:09.983Z,14.08
2023-03-03T11:01:10.023Z,14.23
2023-03-03T11:02:09.936Z,14.15
2023-03-03T11:03:09.960Z,14.3
2023-03-03T11:04:10.078Z,14.15
2023-03-03T11:05:10.050Z,14.45
2023-03-03T11:06:09.964Z,14.13
2023-03-03T11:07:11.811Z,14.07
2023-03-03T11:08:12.846Z,14.3
2023-03-03T11:09:09.812Z,14.37
2023-03-03T11:10:09.968Z,14.03
2023-03-03T11:11:09.982Z,14.2
2023-03-03T11:12:09.988Z,14.04
2023-03-03T11:13:13.139Z,14.45
2023-03-03T11:14:09.974Z,14.53
2023-03-03T11:15:09.973Z,14.49
2023-03-03T11:16:10.025Z,14.49
2023-03-03T11:17:10.205Z,14.22
2023-03-03T11:18:09.966Z,14.58
2023-03-03T11:19:13.060Z,14.51
2023-03-03T11:20:09.974Z,14.61
2023-03-03T11:21:09.987Z,14.67
2023-03-03T11:22:10.031Z,14.85
2023-03-03T11:23:10.098Z,14.89
2023-03-03T11:24:13.114Z,14.9
2023-03-03T11:25:10.316Z,14.9
2023-03-03T11:26:09.992Z,14.7
2023-03-03T11:27:10.551Z,14.92
2023-03-03T11:28:09.997Z,14.68
2023-03-03T11:29:09.981Z,14.58
2023-03-03T11:30:10.119Z,14.13
2023-03-03T11:31:10.115Z,14.41
2023-03-03T11:32:10.169Z,14.61
2023-03-03T11:33:10.004Z,14.77
2023-03-03T11:34:10.096Z,14.81
2023-03-03T11:35:12.755Z,14.85
2023-03-03T11:36:10.117Z,14.48
2023-03-03T11:37:10.020Z,14.67
2023-03-03T11:38:10.062Z,14.73
2023-03-03T11:39:10.074Z,14.48
2023-03-03T11:40:10.012Z,14.74
2023-03-03T11:41:09.995Z,14.73
2023-03-03T11:42:10.002Z,14.7
2023-03-03T11:43:10.019Z,14.67
2023-03-03T11:44:10.047Z,14.79
2023-03-03T11:45:10.088Z,14.71
2023-03-03T11:46:14.153Z,14.7
2023-03-03T11:47:10.046Z,14.85
2023-03-03T11:48:10.005Z,14.93
2023-03-03T11:49:10.019Z,14.87
2023-03-03T11:50:10.066Z,14.74
2023-03-03T11:51:10.005Z,14.97
2023-03-03T11:52:10.011Z,14.68
2023-03-03T11:53:10.039Z,14.45
2023-03-03T11:54:10.012Z,14.48
2023-03-03T11:55:10.302Z,14.71
2023-03-03T11:56:10.081Z,14.81
2023-03-03T11:57:13.151Z,14.63
2023-03-03T11:58:10.026Z,14.71
2023-03-03T11:59:10.068Z,14.96
2023-03-03T12:00:10.071Z,14.52
2023-03-03T12:01:10.135Z,14.66
2023-03-03T12:02:10.047Z,14.73
2023-03-03T12:03:10.029Z,14.87
2023-03-03T12:04:10.021Z,14.9
2023-03-03T12:05:10.124Z,14.58
2023-03-03T12:06:12.508Z,14.78
2023-03-03T12:07:22.516Z,14.78
2023-03-03T12:08:13.039Z,14.94
2023-03-03T12:09:10.046Z,15.07
2023-03-03T12:10:10.071Z,14.94
2023-03-03T12:11:10.100Z,14.62
2023-03-03T12:12:10.053Z,14.25
2023-03-03T12:13:10.076Z,14.61
2023-03-03T12:14:10.117Z,14.77
2023-03-03T12:15:10.107Z,14.81
2023-03-03T12:16:10.223Z,14.85
2023-03-03T12:17:10.054Z,14.9
2023-03-03T12:18:10.045Z,14.85
2023-03-03T12:19:12.811Z,14.92
2023-03-03T12:20:10.161Z,14.79
2023-03-03T12:21:10.055Z,14.79
2023-03-03T12:22:10.068Z,14.63
2023-03-03T12:23:11.963Z,14.89
2023-03-03T12:24:10.061Z,14.87
2023-03-03T12:25:10.142Z,14.86
2023-03-03T12:26:10.072Z,14.7
2023-03-03T12:27:10.082Z,14.97
2023-03-03T12:28:10.082Z,14.97
2023-03-03T12:29:12.356Z,15.02
2023-03-03T12:30:12.989Z,15.05
2023-03-03T12:31:10.282Z,14.78
2023-03-03T12:32:10.340Z,14.85
2023-03-03T12:33:10.084Z,14.43
2023-03-03T12:34:10.109Z,14.85
2023-03-03T12:35:10.109Z,14.73
2023-03-03T12:36:10.090Z,14.97
2023-03-03T12:37:10.112Z,14.94
2023-03-03T12:38:10.106Z,14.87
2023-03-03T12:39:10.126Z,14.96
2023-03-03T12:40:10.106Z,15.05
2023-03-03T12:41:13.374Z,15.12
2023-03-03T12:42:10.121Z,15.11
2023-03-03T12:43:10.171Z,14.93
2023-03-03T12:44:10.104Z,15.17
2023-03-03T12:45:10.146Z,15.35
2023-03-03T12:46:10.197Z,15.41
2023-03-03T12:47:10.325Z,15.3
2023-03-03T12:48:10.151Z,15.36
2023-03-03T12:49:10.127Z,15.15
2023-03-03T12:50:12.939Z,15.3
2023-03-03T12:51:10.172Z,15.47
2023-03-03T12:52:11.201Z,15.48
2023-03-03T12:53:14.641Z,15.25
2023-03-03T12:54:10.195Z,15
2023-03-03T12:55:10.131Z,15.15
2023-03-03T12:56:10.204Z,15.37
2023-03-03T12:57:12.965Z,15.48
2023-03-03T12:58:10.128Z,15.5
2023-03-03T12:59:10.178Z,15.55
2023-03-03T13:00:10.140Z,15.6
2023-03-03T13:01:10.416Z,15.65
2023-03-03T13:02:10.130Z,15.73
2023-03-03T13:03:10.335Z,15.81
2023-03-03T13:04:10.421Z,16.03
2023-03-03T13:05:10.160Z,16.08
2023-03-03T13:06:10.214Z,16.1
2023-03-03T13:07:10.134Z,15.91
2023-03-03T13:08:16.067Z,15.85
2023-03-03T13:09:10.170Z,15.99
2023-03-03T13:10:10.159Z,15.91
2023-03-03T13:11:10.173Z,15.75
2023-03-03T13:12:10.172Z,15.33
2023-03-03T13:13:10.144Z,15.22
2023-03-03T13:14:10.178Z,15.47
2023-03-03T13:15:10.229Z,15.35